Terminal Aerodrome Forecast
Issued by NWS

Home | Current Version | Previous Version | Text Only | Print | Product List | Glossary On
Versions: 1 2 3 4 5 6 7 8 9 10 11 12 13
869
FTUS46 KMTR 260849 AAA
TAFMRY
TAF AMD
KMRY 260849Z 2609/2706 VRB03KT P6SM BKN013
     FM261800 28009KT P6SM FEW010 SCT015 BKN035
     FM270000 27010KT P6SM SCT015 BKN025
     FM270300 26005KT P6SM SCT010 SCT030=

USA.gov is the U.S. government's official web portal to all federal, state and local government web resources and services.